createdAt,value
2023-04-18T00:02:17.795Z,87.18
2023-04-18T00:05:47.656Z,87.51
2023-04-18T00:09:12.906Z,87.65
2023-04-18T00:12:40.173Z,88.03
2023-04-18T00:16:08.812Z,88.10
2023-04-18T00:19:35.821Z,87.87
2023-04-18T00:23:02.657Z,88.58
2023-04-18T00:26:29.556Z,88.16
2023-04-18T00:29:57.256Z,88.69
2023-04-18T00:33:24.076Z,88.69
2023-04-18T00:36:51.972Z,88.79
2023-04-18T00:40:18.772Z,88.82
2023-04-18T00:43:45.804Z,89.21
2023-04-18T00:47:13.004Z,89.25
2023-04-18T00:50:41.636Z,89.30
2023-04-18T00:54:13.218Z,89.22
2023-04-18T00:57:40.446Z,89.41
2023-04-18T01:01:08.237Z,89.35
2023-04-18T01:04:35.710Z,89.64
2023-04-18T01:08:03.015Z,89.89
2023-04-18T01:11:30.042Z,89.77
2023-04-18T01:14:57.306Z,89.69
2023-04-18T01:18:24.511Z,90.24
2023-04-18T01:21:53.478Z,90.32
2023-04-18T01:25:20.558Z,90.66
2023-04-18T01:28:47.603Z,90.63
2023-04-18T01:32:14.457Z,90.69
2023-04-18T01:35:41.538Z,90.76
2023-04-18T01:39:09.479Z,90.86
2023-04-18T01:42:36.325Z,90.86
2023-04-18T01:46:03.436Z,90.94
2023-04-18T01:49:30.671Z,91.37
2023-04-18T01:52:57.457Z,91.54
2023-04-18T01:56:24.407Z,91.64
2023-04-18T01:59:51.502Z,91.84
2023-04-18T02:03:18.647Z,92.04
2023-04-18T02:06:45.819Z,91.79
2023-04-18T02:10:13.879Z,92.04
2023-04-18T02:13:40.857Z,92.39
2023-04-18T02:17:08.087Z,92.46
2023-04-18T02:20:36.382Z,92.79
2023-04-18T02:24:03.164Z,92.93
2023-04-18T02:27:30.333Z,93.00
2023-04-18T02:30:57.325Z,92.96
2023-04-18T02:34:24.178Z,92.36
2023-04-18T02:37:51.236Z,92.77
2023-04-18T02:41:19.605Z,93.01
2023-04-18T02:44:47.158Z,93.58
2023-04-18T02:48:14.571Z,93.20
2023-04-18T02:51:41.792Z,93.40
2023-04-18T02:55:09.893Z,93.28
2023-04-18T02:58:39.000Z,93.53
2023-04-18T03:02:35.573Z,93.87
2023-04-18T03:06:12.775Z,94.05
2023-04-18T03:09:40.142Z,94.39
2023-04-18T03:13:16.329Z,94.26
2023-04-18T03:16:44.095Z,94.34
2023-04-18T03:20:13.706Z,94.47
2023-04-18T03:23:40.925Z,94.76
2023-04-18T03:27:08.334Z,95.51
2023-04-18T03:30:37.419Z,95.57
2023-04-18T03:34:05.232Z,95.50
2023-04-18T03:37:32.446Z,95.61
2023-04-18T03:41:00.444Z,95.17
2023-04-18T03:44:32.543Z,95.86
2023-04-18T03:47:59.434Z,95.29
2023-04-18T03:51:27.473Z,95.27
2023-04-18T03:54:54.526Z,95.46
2023-04-18T03:58:25.006Z,95.63
2023-04-18T04:01:55.970Z,95.51
2023-04-18T04:05:23.216Z,95.50
2023-04-18T04:08:50.897Z,95.75
2023-04-18T04:12:21.377Z,95.42
2023-04-18T04:15:48.345Z,95.39
2023-04-18T04:19:16.157Z,95.98
2023-04-18T04:22:54.002Z,95.84
2023-04-18T04:26:23.347Z,95.70
2023-04-18T04:29:57.908Z,95.49
2023-04-18T04:33:28.727Z,95.40
2023-04-18T04:37:00.871Z,95.64
2023-04-18T04:40:28.617Z,95.35
2023-04-18T04:44:04.936Z,95.48
2023-04-18T04:47:34.258Z,95.35
2023-04-18T04:51:02.467Z,95.38
2023-04-18T04:54:29.524Z,95.18
2023-04-18T04:57:57.480Z,95.35
2023-04-18T05:01:38.861Z,95.04
2023-04-18T05:05:06.764Z,95.13
2023-04-18T05:08:34.130Z,94.94
2023-04-18T05:12:03.527Z,94.81
2023-04-18T05:15:30.722Z,94.77
2023-04-18T05:18:57.620Z,94.77
2023-04-18T05:22:24.474Z,94.87
2023-04-18T05:25:51.628Z,94.82
2023-04-18T05:29:18.563Z,94.76
2023-04-18T05:32:45.836Z,94.72
2023-04-18T05:36:13.381Z,94.59
2023-04-18T05:39:40.544Z,94.40
2023-04-18T05:43:07.683Z,93.98
2023-04-18T05:46:34.856Z,93.76
2023-04-18T05:50:01.791Z,93.59
2023-04-18T05:53:29.022Z,93.21
2023-04-18T05:56:57.137Z,93.18
2023-04-18T06:00:25.057Z,92.85
2023-04-18T06:03:52.160Z,92.58
2023-04-18T06:07:19.451Z,92.35
2023-04-18T06:10:46.440Z,92.01
2023-04-18T06:14:13.727Z,91.37
2023-04-18T06:17:40.851Z,90.98
2023-04-18T06:21:08.608Z,90.85
2023-04-18T06:24:35.707Z,89.89
2023-04-18T06:28:02.737Z,88.34
2023-04-18T06:31:29.783Z,87.68
2023-04-18T06:34:56.801Z,86.64
2023-04-18T06:38:23.689Z,85.15
2023-04-18T06:41:50.637Z,85.36
2023-04-18T06:45:26.735Z,84.22
2023-04-18T06:48:53.857Z,84.25
2023-04-18T06:52:20.775Z,82.79
2023-04-18T06:55:47.854Z,81.96
2023-04-18T06:59:14.833Z,81.10
2023-04-18T07:02:42.703Z,79.97
2023-04-18T07:06:10.992Z,80.51
2023-04-18T07:09:38.085Z,79.26
2023-04-18T07:13:05.152Z,80.28
2023-04-18T07:16:32.048Z,75.99
2023-04-18T07:19:59.010Z,75.01
2023-04-18T07:23:25.992Z,75.96
2023-04-18T07:26:54.892Z,75.33
2023-04-18T07:30:22.346Z,75.78
2023-04-18T07:33:49.269Z,75.54
2023-04-18T07:37:17.566Z,77.44
2023-04-18T07:40:45.892Z,77.87
2023-04-18T07:44:13.165Z,77.48
2023-04-18T07:47:40.201Z,76.74
2023-04-18T07:51:07.937Z,75.66
2023-04-18T07:54:34.886Z,76.31
2023-04-18T07:58:01.913Z,75.84
2023-04-18T08:01:29.193Z,75.15
2023-04-18T08:04:56.529Z,75.09
2023-04-18T08:08:23.607Z,75.68
2023-04-18T08:11:50.482Z,76.19
2023-04-18T08:15:17.381Z,76.14
2023-04-18T08:18:44.302Z,75.64
2023-04-18T08:22:12.157Z,75.85
2023-04-18T08:25:38.958Z,75.51
2023-04-18T08:29:06.494Z,75.43
2023-04-18T08:32:34.011Z,75.01
2023-04-18T08:36:01.278Z,73.42
2023-04-18T08:39:28.257Z,73.04
2023-04-18T08:42:56.690Z,73.79
2023-04-18T08:46:24.106Z,73.15
2023-04-18T08:49:52.298Z,74.09
2023-04-18T08:53:19.687Z,73.35
2023-04-18T08:56:46.726Z,71.94
2023-04-18T09:00:15.795Z,70.89
2023-04-18T09:03:44.249Z,70.10
2023-04-18T09:07:12.635Z,69.97
2023-04-18T09:10:43.055Z,69.96
2023-04-18T09:14:24.638Z,70.97
2023-04-18T09:17:54.023Z,69.00
2023-04-18T09:21:21.772Z,68.83
2023-04-18T09:24:58.654Z,69.28
2023-04-18T09:28:28.200Z,69.58
2023-04-18T09:32:02.850Z,69.94
2023-04-18T09:35:30.160Z,68.53
2023-04-18T09:38:57.465Z,67.23
2023-04-18T09:42:27.435Z,66.37
2023-04-18T09:45:55.584Z,65.03
2023-04-18T09:49:23.441Z,64.68
2023-04-18T09:52:51.411Z,64.09
2023-04-18T09:56:26.613Z,65.12
2023-04-18T09:59:58.795Z,65.59
2023-04-18T10:03:34.571Z,65.83
2023-04-18T10:07:01.951Z,64.87
2023-04-18T10:10:29.053Z,64.22
2023-04-18T10:13:59.847Z,64.67
2023-04-18T10:17:29.764Z,64.98
2023-04-18T10:21:04.250Z,64.38
2023-04-18T10:24:57.235Z,65.04
2023-04-18T10:28:24.553Z,66.54
2023-04-18T10:31:51.751Z,65.54
2023-04-18T10:35:22.208Z,64.18
2023-04-18T10:38:53.028Z,65.56
2023-04-18T10:42:19.995Z,65.03
2023-04-18T10:46:10.105Z,64.11
2023-04-18T10:49:53.896Z,65.05
2023-04-18T10:53:19.385Z,66.02
2023-04-18T10:56:55.225Z,64.57
2023-04-18T11:00:23.772Z,64.46
2023-04-18T11:03:50.895Z,65.62
2023-04-18T11:07:18.179Z,64.37
2023-04-18T11:10:57.770Z,64.80
2023-04-18T11:14:23.274Z,64.84
2023-04-18T11:17:58.950Z,65.27
2023-04-18T11:21:30.473Z,64.18
2023-04-18T11:25:02.246Z,62.68
2023-04-18T11:28:29.728Z,63.86
2023-04-18T11:31:58.648Z,64.64
2023-04-18T11:35:26.337Z,64.73
2023-04-18T11:38:53.598Z,62.01
2023-04-18T11:42:21.453Z,62.49
2023-04-18T11:45:55.867Z,63.15
2023-04-18T11:49:31.611Z,62.75
2023-04-18T11:52:59.003Z,61.46
2023-04-18T11:56:26.265Z,62.14
2023-04-18T11:59:56.284Z,63.32
2023-04-18T12:03:25.139Z,63.58
2023-04-18T12:06:53.924Z,63.56
2023-04-18T12:10:29.875Z,62.92
2023-04-18T12:13:59.558Z,62.98
2023-04-18T12:17:28.790Z,63.28
2023-04-18T12:21:02.570Z,63.59
2023-04-18T12:24:29.889Z,63.48
2023-04-18T12:27:59.847Z,63.39
2023-04-18T12:31:28.751Z,63.19
2023-04-18T12:34:56.557Z,63.50
2023-04-18T12:38:24.421Z,63.60
2023-04-18T12:41:51.697Z,63.51
2023-04-18T12:45:19.862Z,63.38
2023-04-18T12:48:46.983Z,62.13
2023-04-18T12:52:13.841Z,62.01
2023-04-18T12:55:40.894Z,63.24
2023-04-18T12:59:07.768Z,61.44
2023-04-18T13:02:37.273Z,62.76
2023-04-18T13:06:04.860Z,62.33
2023-04-18T13:09:31.842Z,61.61
2023-04-18T13:12:58.594Z,61.25
2023-04-18T13:16:25.610Z,60.61
2023-04-18T13:19:53.090Z,60.44
2023-04-18T13:23:19.990Z,60.60
2023-04-18T13:26:47.050Z,59.93
2023-04-18T13:30:14.907Z,60.65
2023-04-18T13:33:42.297Z,61.55
2023-04-18T13:37:09.350Z,61.40
2023-04-18T13:40:38.796Z,60.84
2023-04-18T13:44:06.380Z,58.70
2023-04-18T13:47:33.430Z,59.06
2023-04-18T13:51:00.455Z,59.82
2023-04-18T13:54:28.584Z,59.48
2023-04-18T13:57:55.893Z,59.09
2023-04-18T14:01:23.067Z,59.26
2023-04-18T14:04:54.857Z,59.11
2023-04-18T14:08:21.854Z,59.36
2023-04-18T14:11:48.696Z,59.12
2023-04-18T14:15:16.800Z,58.37
2023-04-18T14:18:43.757Z,58.34
2023-04-18T14:22:11.045Z,58.96
2023-04-18T14:25:38.063Z,59.82
2023-04-18T14:29:05.364Z,60.19
2023-04-18T14:32:32.585Z,60.60
2023-04-18T14:35:59.590Z,61.05
2023-04-18T14:39:26.555Z,60.86
2023-04-18T14:42:53.550Z,61.52
2023-04-18T14:46:21.791Z,61.62
2023-04-18T14:49:48.732Z,61.63
2023-04-18T14:53:15.900Z,61.88
2023-04-18T14:56:42.908Z,61.63
2023-04-18T15:00:12.726Z,61.78
2023-04-18T15:03:40.425Z,62.22
2023-04-18T15:07:07.724Z,62.17
2023-04-18T15:10:34.541Z,62.52
2023-04-18T15:14:01.478Z,61.98
2023-04-18T15:17:29.324Z,61.92
2023-04-18T15:20:57.089Z,60.65
2023-04-18T15:24:24.146Z,59.82
2023-04-18T15:27:51.178Z,59.39
2023-04-18T15:31:20.802Z,59.57
2023-04-18T15:34:49.996Z,60.26
2023-04-18T15:38:19.326Z,60.31
2023-04-18T15:41:48.171Z,60.16
2023-04-18T15:45:16.544Z,59.45
2023-04-18T15:48:45.805Z,59.90
2023-04-18T15:52:16.265Z,59.79
2023-04-18T15:55:47.929Z,59.65
2023-04-18T15:59:17.586Z,59.92
2023-04-18T16:02:46.838Z,59.94
2023-04-18T16:06:15.689Z,59.30
2023-04-18T16:09:44.231Z,59.31
2023-04-18T16:13:12.416Z,59.78
2023-04-18T16:16:41.514Z,60.01
2023-04-18T16:20:11.834Z,60.07
2023-04-18T16:23:39.550Z,60.48
2023-04-18T16:27:07.260Z,60.55
2023-04-18T16:30:35.815Z,60.54
2023-04-18T16:34:04.988Z,61.48
2023-04-18T16:37:33.824Z,61.39
2023-04-18T16:41:02.154Z,61.88
2023-04-18T16:44:33.632Z,61.80
2023-04-18T16:48:02.556Z,61.90
2023-04-18T16:51:34.081Z,62.11
2023-04-18T16:55:03.318Z,62.46
2023-04-18T16:58:31.666Z,62.41
2023-04-18T17:02:00.206Z,62.15
2023-04-18T17:05:28.137Z,62.25
2023-04-18T17:08:57.862Z,62.45
2023-04-18T17:12:29.776Z,62.31
2023-04-18T17:15:58.098Z,62.53
2023-04-18T17:19:26.810Z,62.48
2023-04-18T17:22:54.512Z,62.71
2023-04-18T17:26:24.323Z,62.92
2023-04-18T17:29:51.277Z,63.26
2023-04-18T17:33:18.295Z,63.39
2023-04-18T17:36:45.342Z,63.61
2023-04-18T17:40:13.974Z,63.92
2023-04-18T17:43:41.261Z,64.05
2023-04-18T17:47:08.516Z,64.42
2023-04-18T17:50:37.059Z,64.64
2023-04-18T17:54:05.535Z,64.98
2023-04-18T17:57:33.787Z,65.06
2023-04-18T18:01:00.635Z,65.25
2023-04-18T18:04:27.981Z,65.48
2023-04-18T18:07:56.297Z,65.67
2023-04-18T18:11:24.413Z,65.58
2023-04-18T18:14:51.545Z,65.69
2023-04-18T18:18:19.126Z,65.89
2023-04-18T18:21:47.555Z,66.22
2023-04-18T18:25:15.218Z,66.41
2023-04-18T18:28:43.583Z,66.23
2023-04-18T18:32:12.211Z,66.39
2023-04-18T18:35:44.340Z,66.27
2023-04-18T18:39:14.797Z,66.51
2023-04-18T18:42:45.749Z,66.61
2023-04-18T18:46:13.182Z,66.72
2023-04-18T18:49:41.144Z,66.71
2023-04-18T18:53:09.837Z,66.75
2023-04-18T18:56:38.904Z,66.72
2023-04-18T19:00:12.030Z,66.95
2023-04-18T19:03:41.074Z,67.14
2023-04-18T19:07:09.352Z,67.52
2023-04-18T19:10:36.642Z,67.57
2023-04-18T19:14:04.288Z,67.79
2023-04-18T19:17:32.053Z,67.58
2023-04-18T19:21:00.174Z,67.84
2023-04-18T19:24:28.294Z,68.07
2023-04-18T19:27:55.416Z,68.26
2023-04-18T19:31:22.406Z,68.63
2023-04-18T19:34:50.927Z,69.07
2023-04-18T19:38:18.108Z,69.32
2023-04-18T19:41:46.113Z,69.64
2023-04-18T19:45:15.188Z,70.03
2023-04-18T19:48:42.084Z,70.37
2023-04-18T19:52:09.265Z,70.62
2023-04-18T19:55:36.314Z,70.89
2023-04-18T19:59:06.110Z,71.35
2023-04-18T20:02:31.590Z,71.65
2023-04-18T20:05:58.886Z,71.98
2023-04-18T20:09:25.803Z,72.26
2023-04-18T20:12:52.706Z,72.26
2023-04-18T20:16:19.624Z,72.66
2023-04-18T20:19:49.851Z,72.78
2023-04-18T20:23:16.894Z,72.97
2023-04-18T20:26:43.995Z,73.43
2023-04-18T20:30:11.841Z,73.61
2023-04-18T20:33:38.947Z,73.99
2023-04-18T20:37:07.696Z,74.45
2023-04-18T20:40:35.153Z,74.42
2023-04-18T20:44:05.193Z,74.06
2023-04-18T20:47:33.454Z,74.10
2023-04-18T20:51:00.416Z,73.75
2023-04-18T20:54:27.562Z,73.67
2023-04-18T20:57:54.493Z,74.03
2023-04-18T21:01:21.869Z,74.12
2023-04-18T21:04:49.385Z,74.32
2023-04-18T21:08:16.532Z,74.69
2023-04-18T21:11:43.837Z,74.70
2023-04-18T21:15:12.746Z,74.68
2023-04-18T21:18:40.621Z,75.03
2023-04-18T21:22:11.694Z,75.60
2023-04-18T21:25:38.613Z,75.62
2023-04-18T21:29:06.632Z,75.48
2023-04-18T21:32:33.473Z,75.48
2023-04-18T21:36:00.645Z,75.76
2023-04-18T21:39:28.287Z,75.44
2023-04-18T21:42:55.216Z,74.88
2023-04-18T21:46:23.118Z,74.50
2023-04-18T21:49:50.706Z,73.66
2023-04-18T21:53:18.190Z,73.21
2023-04-18T21:56:44.965Z,73.32
2023-04-18T22:00:13.787Z,73.91
2023-04-18T22:03:41.014Z,74.20
2023-04-18T22:07:08.842Z,74.63
2023-04-18T22:10:36.571Z,75.18
2023-04-18T22:14:06.871Z,75.91
2023-04-18T22:17:38.063Z,76.33
2023-04-18T22:21:05.277Z,75.88
2023-04-18T22:24:32.413Z,75.84
2023-04-18T22:27:59.453Z,75.71
2023-04-18T22:31:26.272Z,71.58
2023-04-18T22:34:53.314Z,69.21
2023-04-18T22:38:20.255Z,67.71
2023-04-18T22:41:47.154Z,67.66
2023-04-18T22:45:14.602Z,64.58
2023-04-18T22:48:41.471Z,63.46
2023-04-18T22:52:09.120Z,64.07
2023-04-18T22:55:38.568Z,63.56
2023-04-18T22:59:05.526Z,63.53
2023-04-18T23:02:32.691Z,63.38
2023-04-18T23:05:59.854Z,63.56
2023-04-18T23:09:27.632Z,65.05
2023-04-18T23:12:54.804Z,66.13
2023-04-18T23:16:21.692Z,67.49
2023-04-18T23:19:48.546Z,68.79
2023-04-18T23:23:15.412Z,69.48
2023-04-18T23:26:42.463Z,69.96
2023-04-18T23:30:11.653Z,70.99
2023-04-18T23:33:38.439Z,71.39
2023-04-18T23:37:05.243Z,70.05
2023-04-18T23:40:32.338Z,67.29
2023-04-18T23:43:59.916Z,66.45
2023-04-18T23:47:26.967Z,65.84
2023-04-18T23:50:54.468Z,64.65
2023-04-18T23:54:21.371Z,62.05
2023-04-18T23:57:48.364Z,60.52
